sensor_id;sensor_type;location;lat;lon;timestamp;P1;durP1;ratioP1;P2;durP2;ratioP2
54923;SDS011;40825;52.270;20.984;2022-11-15T00:01:08;18.60;;;10.00;;
54923;SDS011;40825;52.270;20.984;2022-11-15T00:03:34;20.50;;;9.30;;
54923;SDS011;40825;52.270;20.984;2022-11-15T00:06:03;20.70;;;11.40;;
54923;SDS011;40825;52.270;20.984;2022-11-15T00:08:30;22.90;;;10.90;;
54923;SDS011;40825;52.270;20.984;2022-11-15T00:11:00;19.00;;;9.40;;
54923;SDS011;40825;52.270;20.984;2022-11-15T00:13:27;22.60;;;11.10;;
54923;SDS011;40825;52.270;20.984;2022-11-15T00:15:52;25.40;;;13.40;;
54923;SDS011;40825;52.270;20.984;2022-11-15T00:18:18;22.00;;;10.60;;
54923;SDS011;40825;52.270;20.984;2022-11-15T00:20:44;24.60;;;12.30;;
54923;SDS011;40825;52.270;20.984;2022-11-15T00:23:09;24.90;;;12.40;;
54923;SDS011;40825;52.270;20.984;2022-11-15T00:25:35;25.20;;;12.20;;
54923;SDS011;40825;52.270;20.984;2022-11-15T00:28:00;22.20;;;11.40;;
54923;SDS011;40825;52.270;20.984;2022-11-15T00:30:27;24.20;;;11.80;;
54923;SDS011;40825;52.270;20.984;2022-11-15T00:32:53;23.30;;;11.90;;
54923;SDS011;40825;52.270;20.984;2022-11-15T00:35:19;21.00;;;11.20;;
54923;SDS011;40825;52.270;20.984;2022-11-15T00:37:45;24.40;;;11.90;;
54923;SDS011;40825;52.270;20.984;2022-11-15T00:40:12;24.70;;;11.10;;
54923;SDS011;40825;52.270;20.984;2022-11-15T00:42:38;21.40;;;11.80;;
54923;SDS011;40825;52.270;20.984;2022-11-15T00:45:03;25.00;;;12.40;;
54923;SDS011;40825;52.270;20.984;2022-11-15T00:47:29;23.50;;;11.60;;
54923;SDS011;40825;52.270;20.984;2022-11-15T00:49:54;24.00;;;11.80;;
54923;SDS011;40825;52.270;20.984;2022-11-15T00:52:20;27.10;;;13.40;;
54923;SDS011;40825;52.270;20.984;2022-11-15T00:54:45;27.10;;;12.10;;
54923;SDS011;40825;52.270;20.984;2022-11-15T00:57:10;22.10;;;10.60;;
54923;SDS011;40825;52.270;20.984;2022-11-15T00:59:36;27.40;;;13.00;;
54923;SDS011;40825;52.270;20.984;2022-11-15T01:02:01;28.30;;;13.20;;
54923;SDS011;40825;52.270;20.984;2022-11-15T01:04:27;26.50;;;12.70;;
54923;SDS011;40825;52.270;20.984;2022-11-15T01:06:52;29.30;;;13.20;;
54923;SDS011;40825;52.270;20.984;2022-11-15T01:09:18;26.30;;;12.00;;
54923;SDS011;40825;52.270;20.984;2022-11-15T01:11:44;27.90;;;12.60;;
54923;SDS011;40825;52.270;20.984;2022-11-15T01:14:09;25.90;;;11.90;;
54923;SDS011;40825;52.270;20.984;2022-11-15T01:16:34;26.40;;;12.10;;
54923;SDS011;40825;52.270;20.984;2022-11-15T01:19:00;24.90;;;12.00;;
54923;SDS011;40825;52.270;20.984;2022-11-15T01:21:26;29.80;;;13.20;;
54923;SDS011;40825;52.270;20.984;2022-11-15T01:23:55;27.50;;;12.90;;
54923;SDS011;40825;52.270;20.984;2022-11-15T01:26:21;28.00;;;13.20;;
54923;SDS011;40825;52.270;20.984;2022-11-15T01:28:48;31.00;;;12.80;;
54923;SDS011;40825;52.270;20.984;2022-11-15T01:31:17;24.30;;;11.20;;
54923;SDS011;40825;52.270;20.984;2022-11-15T01:33:44;29.20;;;14.10;;
54923;SDS011;40825;52.270;20.984;2022-11-15T01:36:14;27.90;;;12.70;;
54923;SDS011;40825;52.270;20.984;2022-11-15T01:38:46;31.10;;;16.00;;
54923;SDS011;40825;52.270;20.984;2022-11-15T01:41:14;29.70;;;13.80;;
54923;SDS011;40825;52.270;20.984;2022-11-15T01:43:41;31.90;;;15.50;;
54923;SDS011;40825;52.270;20.984;2022-11-15T01:46:18;30.70;;;13.70;;
54923;SDS011;40825;52.270;20.984;2022-11-15T01:49:11;35.40;;;16.10;;
54923;SDS011;40825;52.270;20.984;2022-11-15T01:51:39;31.20;;;14.90;;
54923;SDS011;40825;52.270;20.984;2022-11-15T01:54:06;30.40;;;13.70;;
54923;SDS011;40825;52.270;20.984;2022-11-15T01:56:39;31.60;;;14.70;;
54923;SDS011;40825;52.270;20.984;2022-11-15T01:59:13;34.50;;;17.20;;
54923;SDS011;40825;52.270;20.984;2022-11-15T02:01:39;32.70;;;15.90;;
54923;SDS011;40825;52.270;20.984;2022-11-15T02:04:16;30.60;;;13.80;;
54923;SDS011;40825;52.270;20.984;2022-11-15T02:06:45;29.30;;;13.40;;
54923;SDS011;40825;52.270;20.984;2022-11-15T02:09:13;35.00;;;15.30;;
54923;SDS011;40825;52.270;20.984;2022-11-15T02:11:39;30.50;;;15.00;;
54923;SDS011;40825;52.270;20.984;2022-11-15T02:14:05;32.30;;;12.80;;
54923;SDS011;40825;52.270;20.984;2022-11-15T02:27:42;32.20;;;14.50;;
54923;SDS011;40825;52.270;20.984;2022-11-15T02:36:33;32.50;;;14.20;;
54923;SDS011;40825;52.270;20.984;2022-11-15T02:40:22;35.30;;;14.30;;
54923;SDS011;40825;52.270;20.984;2022-11-15T02:42:30;29.80;;;13.70;;
54923;SDS011;40825;52.270;20.984;2022-11-15T02:45:20;34.40;;;15.30;;
54923;SDS011;40825;52.270;20.984;2022-11-15T02:47:50;30.80;;;13.90;;
54923;SDS011;40825;52.270;20.984;2022-11-15T02:50:21;34.40;;;14.70;;
54923;SDS011;40825;52.270;20.984;2022-11-15T02:52:50;34.50;;;13.90;;
54923;SDS011;40825;52.270;20.984;2022-11-15T02:55:30;32.40;;;14.20;;
54923;SDS011;40825;52.270;20.984;2022-11-15T02:58:10;32.10;;;13.60;;
54923;SDS011;40825;52.270;20.984;2022-11-15T03:00:58;34.50;;;15.80;;
54923;SDS011;40825;52.270;20.984;2022-11-15T03:03:42;30.40;;;14.40;;
54923;SDS011;40825;52.270;20.984;2022-11-15T03:06:23;33.10;;;13.40;;
54923;SDS011;40825;52.270;20.984;2022-11-15T03:12:17;33.00;;;14.80;;
54923;SDS011;40825;52.270;20.984;2022-11-15T03:15:05;32.00;;;15.30;;
54923;SDS011;40825;52.270;20.984;2022-11-15T03:17:47;35.70;;;14.40;;
54923;SDS011;40825;52.270;20.984;2022-11-15T03:20:20;36.50;;;16.10;;
54923;SDS011;40825;52.270;20.984;2022-11-15T03:22:46;35.50;;;15.60;;
54923;SDS011;40825;52.270;20.984;2022-11-15T03:25:18;36.10;;;16.40;;
54923;SDS011;40825;52.270;20.984;2022-11-15T03:27:50;35.10;;;15.10;;
54923;SDS011;40825;52.270;20.984;2022-11-15T03:30:19;29.50;;;14.40;;
54923;SDS011;40825;52.270;20.984;2022-11-15T03:32:46;38.70;;;16.40;;
54923;SDS011;40825;52.270;20.984;2022-11-15T03:35:17;36.50;;;15.20;;
54923;SDS011;40825;52.270;20.984;2022-11-15T03:40:38;39.40;;;15.80;;
54923;SDS011;40825;52.270;20.984;2022-11-15T03:46:06;32.00;;;13.90;;
54923;SDS011;40825;52.270;20.984;2022-11-15T03:48:43;38.80;;;16.60;;
54923;SDS011;40825;52.270;20.984;2022-11-15T03:51:14;40.10;;;17.10;;
54923;SDS011;40825;52.270;20.984;2022-11-15T03:53:41;38.10;;;16.10;;
54923;SDS011;40825;52.270;20.984;2022-11-15T03:56:07;37.10;;;15.10;;
54923;SDS011;40825;52.270;20.984;2022-11-15T03:58:32;40.40;;;17.50;;
54923;SDS011;40825;52.270;20.984;2022-11-15T04:00:57;43.40;;;17.10;;
54923;SDS011;40825;52.270;20.984;2022-11-15T04:03:24;39.40;;;17.00;;
54923;SDS011;40825;52.270;20.984;2022-11-15T04:05:50;40.00;;;18.20;;
54923;SDS011;40825;52.270;20.984;2022-11-15T04:08:15;38.20;;;16.40;;
54923;SDS011;40825;52.270;20.984;2022-11-15T04:10:41;42.40;;;16.80;;
54923;SDS011;40825;52.270;20.984;2022-11-15T04:13:06;32.00;;;13.50;;
54923;SDS011;40825;52.270;20.984;2022-11-15T04:15:32;43.30;;;18.40;;
54923;SDS011;40825;52.270;20.984;2022-11-15T04:17:57;39.60;;;17.30;;
54923;SDS011;40825;52.270;20.984;2022-11-15T04:20:24;38.30;;;15.50;;
54923;SDS011;40825;52.270;20.984;2022-11-15T04:23:15;38.90;;;15.70;;
54923;SDS011;40825;52.270;20.984;2022-11-15T04:26:12;32.20;;;14.70;;
54923;SDS011;40825;52.270;20.984;2022-11-15T04:28:41;41.80;;;17.50;;
54923;SDS011;40825;52.270;20.984;2022-11-15T04:31:27;38.80;;;16.40;;
54923;SDS011;40825;52.270;20.984;2022-11-15T04:33:52;43.30;;;16.40;;
54923;SDS011;40825;52.270;20.984;2022-11-15T04:36:18;41.30;;;17.40;;
54923;SDS011;40825;52.270;20.984;2022-11-15T04:39:03;39.70;;;15.70;;
54923;SDS011;40825;52.270;20.984;2022-11-15T04:41:28;30.60;;;13.20;;
54923;SDS011;40825;52.270;20.984;2022-11-15T04:43:54;44.50;;;17.00;;
54923;SDS011;40825;52.270;20.984;2022-11-15T04:46:20;43.20;;;17.20;;
54923;SDS011;40825;52.270;20.984;2022-11-15T04:48:45;38.50;;;16.30;;
54923;SDS011;40825;52.270;20.984;2022-11-15T04:51:10;42.40;;;16.10;;
54923;SDS011;40825;52.270;20.984;2022-11-15T04:53:36;42.90;;;16.80;;
54923;SDS011;40825;52.270;20.984;2022-11-15T04:56:01;37.00;;;15.40;;
54923;SDS011;40825;52.270;20.984;2022-11-15T04:58:27;40.90;;;16.50;;
54923;SDS011;40825;52.270;20.984;2022-11-15T05:00:52;41.70;;;17.20;;
54923;SDS011;40825;52.270;20.984;2022-11-15T05:03:17;39.20;;;16.40;;
54923;SDS011;40825;52.270;20.984;2022-11-15T05:06:02;40.20;;;16.90;;
54923;SDS011;40825;52.270;20.984;2022-11-15T05:08:27;33.70;;;13.50;;
54923;SDS011;40825;52.270;20.984;2022-11-15T05:10:52;37.40;;;15.30;;
54923;SDS011;40825;52.270;20.984;2022-11-15T05:13:18;30.10;;;12.10;;
54923;SDS011;40825;52.270;20.984;2022-11-15T05:15:43;44.20;;;17.30;;
54923;SDS011;40825;52.270;20.984;2022-11-15T05:18:09;39.30;;;16.30;;
54923;SDS011;40825;52.270;20.984;2022-11-15T05:20:34;34.30;;;13.30;;
54923;SDS011;40825;52.270;20.984;2022-11-15T05:23:00;39.60;;;16.00;;
54923;SDS011;40825;52.270;20.984;2022-11-15T05:25:25;40.60;;;16.40;;
54923;SDS011;40825;52.270;20.984;2022-11-15T05:27:51;36.30;;;14.70;;
54923;SDS011;40825;52.270;20.984;2022-11-15T05:30:16;40.70;;;16.10;;
54923;SDS011;40825;52.270;20.984;2022-11-15T05:32:42;39.40;;;15.40;;
54923;SDS011;40825;52.270;20.984;2022-11-15T05:35:11;45.00;;;17.10;;
54923;SDS011;40825;52.270;20.984;2022-11-15T05:37:41;35.30;;;15.80;;
54923;SDS011;40825;52.270;20.984;2022-11-15T05:40:07;41.40;;;15.90;;
54923;SDS011;40825;52.270;20.984;2022-11-15T05:42:33;40.30;;;15.20;;
54923;SDS011;40825;52.270;20.984;2022-11-15T05:44:58;33.90;;;13.30;;
54923;SDS011;40825;52.270;20.984;2022-11-15T05:47:27;43.50;;;17.90;;
54923;SDS011;40825;52.270;20.984;2022-11-15T05:49:55;38.10;;;15.70;;
54923;SDS011;40825;52.270;20.984;2022-11-15T05:52:22;39.80;;;15.10;;
54923;SDS011;40825;52.270;20.984;2022-11-15T05:54:50;39.30;;;15.40;;
54923;SDS011;40825;52.270;20.984;2022-11-15T05:57:17;42.20;;;14.70;;
54923;SDS011;40825;52.270;20.984;2022-11-15T05:59:43;30.50;;;12.80;;
54923;SDS011;40825;52.270;20.984;2022-11-15T06:02:09;38.30;;;15.90;;
54923;SDS011;40825;52.270;20.984;2022-11-15T06:04:35;39.80;;;14.40;;
54923;SDS011;40825;52.270;20.984;2022-11-15T06:07:01;32.60;;;13.20;;
54923;SDS011;40825;52.270;20.984;2022-11-15T06:09:27;30.10;;;13.10;;
54923;SDS011;40825;52.270;20.984;2022-11-15T06:11:52;41.00;;;15.30;;
54923;SDS011;40825;52.270;20.984;2022-11-15T06:14:18;33.60;;;14.30;;
54923;SDS011;40825;52.270;20.984;2022-11-15T06:16:43;34.30;;;12.70;;
54923;SDS011;40825;52.270;20.984;2022-11-15T06:19:09;35.30;;;13.90;;
54923;SDS011;40825;52.270;20.984;2022-11-15T06:21:34;36.70;;;14.40;;
54923;SDS011;40825;52.270;20.984;2022-11-15T06:24:00;36.90;;;15.30;;
54923;SDS011;40825;52.270;20.984;2022-11-15T06:26:25;42.00;;;16.00;;
54923;SDS011;40825;52.270;20.984;2022-11-15T06:28:51;36.60;;;14.10;;
54923;SDS011;40825;52.270;20.984;2022-11-15T06:31:16;43.30;;;15.10;;
54923;SDS011;40825;52.270;20.984;2022-11-15T06:33:41;40.70;;;15.60;;
54923;SDS011;40825;52.270;20.984;2022-11-15T06:36:08;33.30;;;13.70;;
54923;SDS011;40825;52.270;20.984;2022-11-15T06:38:35;37.30;;;14.30;;
54923;SDS011;40825;52.270;20.984;2022-11-15T06:41:01;37.60;;;14.10;;
54923;SDS011;40825;52.270;20.984;2022-11-15T06:43:28;35.80;;;14.70;;
54923;SDS011;40825;52.270;20.984;2022-11-15T06:45:54;34.60;;;13.20;;
54923;SDS011;40825;52.270;20.984;2022-11-15T06:48:19;43.30;;;15.20;;
54923;SDS011;40825;52.270;20.984;2022-11-15T06:50:50;28.90;;;11.00;;
54923;SDS011;40825;52.270;20.984;2022-11-15T06:53:17;36.30;;;13.90;;
54923;SDS011;40825;52.270;20.984;2022-11-15T06:55:42;28.40;;;9.50;;
54923;SDS011;40825;52.270;20.984;2022-11-15T06:58:07;36.20;;;13.10;;
54923;SDS011;40825;52.270;20.984;2022-11-15T07:00:34;38.90;;;14.70;;
54923;SDS011;40825;52.270;20.984;2022-11-15T07:02:59;26.60;;;10.80;;
54923;SDS011;40825;52.270;20.984;2022-11-15T07:05:26;40.60;;;14.70;;
54923;SDS011;40825;52.270;20.984;2022-11-15T07:07:52;34.00;;;13.00;;
54923;SDS011;40825;52.270;20.984;2022-11-15T07:10:20;36.20;;;13.50;;
54923;SDS011;40825;52.270;20.984;2022-11-15T07:12:50;31.00;;;13.20;;
54923;SDS011;40825;52.270;20.984;2022-11-15T07:15:16;32.80;;;13.30;;
54923;SDS011;40825;52.270;20.984;2022-11-15T07:17:42;36.60;;;13.80;;
54923;SDS011;40825;52.270;20.984;2022-11-15T07:20:08;32.80;;;12.70;;
54923;SDS011;40825;52.270;20.984;2022-11-15T07:22:34;32.90;;;14.30;;
54923;SDS011;40825;52.270;20.984;2022-11-15T07:24:59;36.70;;;13.70;;
54923;SDS011;40825;52.270;20.984;2022-11-15T07:27:25;32.20;;;12.30;;
54923;SDS011;40825;52.270;20.984;2022-11-15T07:29:50;32.70;;;12.60;;
54923;SDS011;40825;52.270;20.984;2022-11-15T07:32:16;37.10;;;13.70;;
54923;SDS011;40825;52.270;20.984;2022-11-15T07:34:41;36.30;;;13.70;;
54923;SDS011;40825;52.270;20.984;2022-11-15T07:37:07;34.40;;;13.20;;
54923;SDS011;40825;52.270;20.984;2022-11-15T07:39:33;37.60;;;13.10;;
54923;SDS011;40825;52.270;20.984;2022-11-15T07:41:58;33.20;;;13.10;;
54923;SDS011;40825;52.270;20.984;2022-11-15T07:44:43;32.50;;;14.10;;
54923;SDS011;40825;52.270;20.984;2022-11-15T07:47:08;33.10;;;13.90;;
54923;SDS011;40825;52.270;20.984;2022-11-15T07:49:34;34.20;;;14.40;;
54923;SDS011;40825;52.270;20.984;2022-11-15T07:51:59;35.70;;;13.60;;
54923;SDS011;40825;52.270;20.984;2022-11-15T07:54:25;32.60;;;13.30;;
54923;SDS011;40825;52.270;20.984;2022-11-15T07:56:50;30.10;;;12.00;;
54923;SDS011;40825;52.270;20.984;2022-11-15T07:59:16;29.20;;;12.30;;
54923;SDS011;40825;52.270;20.984;2022-11-15T08:01:41;30.70;;;11.60;;
54923;SDS011;40825;52.270;20.984;2022-11-15T08:04:06;29.70;;;12.40;;
54923;SDS011;40825;52.270;20.984;2022-11-15T08:06:32;24.60;;;11.00;;
54923;SDS011;40825;52.270;20.984;2022-11-15T08:08:57;24.20;;;10.70;;
54923;SDS011;40825;52.270;20.984;2022-11-15T08:11:23;27.00;;;12.20;;
54923;SDS011;40825;52.270;20.984;2022-11-15T08:13:48;20.10;;;8.90;;
54923;SDS011;40825;52.270;20.984;2022-11-15T08:16:13;28.70;;;11.60;;
54923;SDS011;40825;52.270;20.984;2022-11-15T08:18:39;28.30;;;11.10;;
54923;SDS011;40825;52.270;20.984;2022-11-15T08:21:05;26.10;;;11.50;;
54923;SDS011;40825;52.270;20.984;2022-11-15T08:23:30;27.90;;;12.70;;
54923;SDS011;40825;52.270;20.984;2022-11-15T08:26:00;32.00;;;13.50;;
54923;SDS011;40825;52.270;20.984;2022-11-15T08:28:30;32.40;;;12.50;;
54923;SDS011;40825;52.270;20.984;2022-11-15T08:30:56;32.70;;;13.90;;
54923;SDS011;40825;52.270;20.984;2022-11-15T08:33:22;31.30;;;12.90;;
54923;SDS011;40825;52.270;20.984;2022-11-15T08:35:47;32.10;;;14.00;;
54923;SDS011;40825;52.270;20.984;2022-11-15T08:38:13;30.70;;;12.80;;
54923;SDS011;40825;52.270;20.984;2022-11-15T08:40:39;26.00;;;11.60;;
54923;SDS011;40825;52.270;20.984;2022-11-15T08:43:05;30.50;;;12.60;;
54923;SDS011;40825;52.270;20.984;2022-11-15T08:45:31;22.00;;;9.30;;
54923;SDS011;40825;52.270;20.984;2022-11-15T08:48:00;33.00;;;12.90;;
54923;SDS011;40825;52.270;20.984;2022-11-15T08:50:27;26.80;;;12.70;;
54923;SDS011;40825;52.270;20.984;2022-11-15T08:52:52;30.60;;;13.60;;
54923;SDS011;40825;52.270;20.984;2022-11-15T08:55:17;28.00;;;11.30;;
54923;SDS011;40825;52.270;20.984;2022-11-15T08:57:43;31.50;;;13.10;;
54923;SDS011;40825;52.270;20.984;2022-11-15T09:00:09;23.80;;;10.20;;
54923;SDS011;40825;52.270;20.984;2022-11-15T09:02:37;28.50;;;12.20;;
54923;SDS011;40825;52.270;20.984;2022-11-15T09:05:04;30.50;;;13.00;;
54923;SDS011;40825;52.270;20.984;2022-11-15T09:07:30;34.30;;;14.70;;
54923;SDS011;40825;52.270;20.984;2022-11-15T09:09:57;30.50;;;13.20;;
54923;SDS011;40825;52.270;20.984;2022-11-15T09:12:23;28.20;;;12.70;;
54923;SDS011;40825;52.270;20.984;2022-11-15T09:14:48;27.10;;;12.00;;
54923;SDS011;40825;52.270;20.984;2022-11-15T09:17:14;24.20;;;11.50;;
54923;SDS011;40825;52.270;20.984;2022-11-15T09:19:39;29.70;;;13.00;;
54923;SDS011;40825;52.270;20.984;2022-11-15T09:22:06;27.50;;;12.50;;
54923;SDS011;40825;52.270;20.984;2022-11-15T09:24:33;28.80;;;12.30;;
54923;SDS011;40825;52.270;20.984;2022-11-15T09:26:59;28.10;;;12.50;;
54923;SDS011;40825;52.270;20.984;2022-11-15T09:29:24;28.90;;;12.10;;
54923;SDS011;40825;52.270;20.984;2022-11-15T09:31:51;29.90;;;12.40;;
54923;SDS011;40825;52.270;20.984;2022-11-15T09:34:17;28.70;;;12.00;;
54923;SDS011;40825;52.270;20.984;2022-11-15T09:36:42;29.30;;;12.30;;
54923;SDS011;40825;52.270;20.984;2022-11-15T09:39:08;29.00;;;12.10;;
54923;SDS011;40825;52.270;20.984;2022-11-15T09:53:13;32.70;;;13.90;;
54923;SDS011;40825;52.270;20.984;2022-11-15T09:55:48;30.00;;;14.10;;
54923;SDS011;40825;52.270;20.984;2022-11-15T09:58:39;30.20;;;14.00;;
54923;SDS011;40825;52.270;20.984;2022-11-15T10:01:18;28.00;;;12.00;;
54923;SDS011;40825;52.270;20.984;2022-11-15T10:03:57;25.60;;;11.30;;
54923;SDS011;40825;52.270;20.984;2022-11-15T10:06:25;31.90;;;13.90;;
54923;SDS011;40825;52.270;20.984;2022-11-15T10:09:00;23.50;;;11.70;;
54923;SDS011;40825;52.270;20.984;2022-11-15T10:11:32;33.00;;;13.80;;
54923;SDS011;40825;52.270;20.984;2022-11-15T10:14:18;25.00;;;11.60;;
54923;SDS011;40825;52.270;20.984;2022-11-15T10:22:41;26.30;;;12.50;;
54923;SDS011;40825;52.270;20.984;2022-11-15T10:25:16;27.60;;;12.10;;
54923;SDS011;40825;52.270;20.984;2022-11-15T10:27:42;29.50;;;12.80;;
54923;SDS011;40825;52.270;20.984;2022-11-15T10:30:14;28.40;;;12.50;;
54923;SDS011;40825;52.270;20.984;2022-11-15T10:32:42;28.50;;;12.60;;
54923;SDS011;40825;52.270;20.984;2022-11-15T10:37:48;32.00;;;14.10;;
54923;SDS011;40825;52.270;20.984;2022-11-15T10:40:16;31.10;;;12.90;;
54923;SDS011;40825;52.270;20.984;2022-11-15T10:42:43;28.30;;;13.40;;
54923;SDS011;40825;52.270;20.984;2022-11-15T10:45:23;29.90;;;12.30;;
54923;SDS011;40825;52.270;20.984;2022-11-15T10:47:51;28.20;;;12.30;;
54923;SDS011;40825;52.270;20.984;2022-11-15T10:50:27;33.70;;;13.90;;
54923;SDS011;40825;52.270;20.984;2022-11-15T10:52:57;30.20;;;13.50;;
54923;SDS011;40825;52.270;20.984;2022-11-15T10:55:29;30.80;;;14.30;;
54923;SDS011;40825;52.270;20.984;2022-11-15T10:58:06;32.20;;;14.10;;
54923;SDS011;40825;52.270;20.984;2022-11-15T11:03:35;27.90;;;13.00;;
54923;SDS011;40825;52.270;20.984;2022-11-15T11:06:07;33.30;;;14.40;;
54923;SDS011;40825;52.270;20.984;2022-11-15T11:08:34;33.00;;;14.00;;
54923;SDS011;40825;52.270;20.984;2022-11-15T11:11:01;31.70;;;14.70;;
54923;SDS011;40825;52.270;20.984;2022-11-15T11:13:28;31.10;;;12.90;;
54923;SDS011;40825;52.270;20.984;2022-11-15T11:22:16;32.50;;;15.10;;
54923;SDS011;40825;52.270;20.984;2022-11-15T11:24:57;29.90;;;14.00;;
54923;SDS011;40825;52.270;20.984;2022-11-15T11:27:41;27.90;;;12.20;;
54923;SDS011;40825;52.270;20.984;2022-11-15T11:30:41;29.50;;;13.30;;
54923;SDS011;40825;52.270;20.984;2022-11-15T11:41:20;35.90;;;16.40;;
54923;SDS011;40825;52.270;20.984;2022-11-15T11:46:43;38.20;;;15.00;;
54923;SDS011;40825;52.270;20.984;2022-11-15T11:49:33;34.70;;;15.00;;
54923;SDS011;40825;52.270;20.984;2022-11-15T11:52:13;37.60;;;15.40;;
54923;SDS011;40825;52.270;20.984;2022-11-15T11:57:29;33.30;;;15.00;;
54923;SDS011;40825;52.270;20.984;2022-11-15T12:00:21;35.80;;;15.70;;
54923;SDS011;40825;52.270;20.984;2022-11-15T12:05:32;35.40;;;15.60;;
54923;SDS011;40825;52.270;20.984;2022-11-15T12:08:21;36.70;;;16.00;;
54923;SDS011;40825;52.270;20.984;2022-11-15T12:13:41;38.80;;;16.30;;
54923;SDS011;40825;52.270;20.984;2022-11-15T12:18:40;34.60;;;15.50;;
54923;SDS011;40825;52.270;20.984;2022-11-15T12:21:18;38.00;;;16.10;;
54923;SDS011;40825;52.270;20.984;2022-11-15T12:23:52;33.60;;;14.40;;
54923;SDS011;40825;52.270;20.984;2022-11-15T12:26:26;36.60;;;15.40;;
54923;SDS011;40825;52.270;20.984;2022-11-15T12:28:58;32.60;;;14.30;;
54923;SDS011;40825;52.270;20.984;2022-11-15T12:34:00;34.40;;;15.40;;
54923;SDS011;40825;52.270;20.984;2022-11-15T12:36:34;36.40;;;14.90;;
54923;SDS011;40825;52.270;20.984;2022-11-15T12:39:08;32.90;;;14.80;;
54923;SDS011;40825;52.270;20.984;2022-11-15T12:41:37;29.40;;;14.20;;
54923;SDS011;40825;52.270;20.984;2022-11-15T12:44:04;33.20;;;13.80;;
54923;SDS011;40825;52.270;20.984;2022-11-15T12:49:47;34.10;;;15.70;;
54923;SDS011;40825;52.270;20.984;2022-11-15T12:57:09;39.30;;;15.70;;
54923;SDS011;40825;52.270;20.984;2022-11-15T13:02:36;33.60;;;14.90;;
54923;SDS011;40825;52.270;20.984;2022-11-15T13:17:37;38.50;;;16.00;;
54923;SDS011;40825;52.270;20.984;2022-11-15T13:22:46;40.90;;;17.10;;
54923;SDS011;40825;52.270;20.984;2022-11-15T13:28:11;38.60;;;15.90;;
54923;SDS011;40825;52.270;20.984;2022-11-15T13:33:14;36.10;;;15.40;;
54923;SDS011;40825;52.270;20.984;2022-11-15T13:35:40;40.40;;;17.50;;
54923;SDS011;40825;52.270;20.984;2022-11-15T13:38:17;42.10;;;17.40;;
54923;SDS011;40825;52.270;20.984;2022-11-15T13:40:50;36.50;;;16.30;;
54923;SDS011;40825;52.270;20.984;2022-11-15T13:48:39;42.70;;;16.90;;
54923;SDS011;40825;52.270;20.984;2022-11-15T13:51:08;38.40;;;16.50;;
54923;SDS011;40825;52.270;20.984;2022-11-15T13:56:42;40.40;;;16.80;;
54923;SDS011;40825;52.270;20.984;2022-11-15T13:59:17;42.90;;;16.80;;
54923;SDS011;40825;52.270;20.984;2022-11-15T14:01:49;38.70;;;16.20;;
54923;SDS011;40825;52.270;20.984;2022-11-15T14:04:18;38.00;;;15.70;;
54923;SDS011;40825;52.270;20.984;2022-11-15T14:06:47;38.50;;;16.70;;
54923;SDS011;40825;52.270;20.984;2022-11-15T14:09:22;40.90;;;17.30;;
54923;SDS011;40825;52.270;20.984;2022-11-15T14:11:53;39.00;;;15.60;;
54923;SDS011;40825;52.270;20.984;2022-11-15T14:14:21;38.20;;;16.50;;
54923;SDS011;40825;52.270;20.984;2022-11-15T14:16:50;34.90;;;14.70;;
54923;SDS011;40825;52.270;20.984;2022-11-15T14:24:33;33.50;;;14.30;;
54923;SDS011;40825;52.270;20.984;2022-11-15T14:29:51;36.90;;;16.20;;
54923;SDS011;40825;52.270;20.984;2022-11-15T14:34:54;37.50;;;16.40;;
54923;SDS011;40825;52.270;20.984;2022-11-15T14:37:31;39.50;;;16.30;;
54923;SDS011;40825;52.270;20.984;2022-11-15T14:40:02;41.60;;;17.70;;
54923;SDS011;40825;52.270;20.984;2022-11-15T14:42:29;40.80;;;17.50;;
54923;SDS011;40825;52.270;20.984;2022-11-15T14:44:55;35.90;;;15.20;;
54923;SDS011;40825;52.270;20.984;2022-11-15T14:47:21;39.00;;;15.60;;
54923;SDS011;40825;52.270;20.984;2022-11-15T14:49:46;41.10;;;18.20;;
54923;SDS011;40825;52.270;20.984;2022-11-15T14:52:28;39.70;;;15.60;;
54923;SDS011;40825;52.270;20.984;2022-11-15T14:54:58;41.40;;;16.70;;
54923;SDS011;40825;52.270;20.984;2022-11-15T14:57:26;36.40;;;15.20;;
54923;SDS011;40825;52.270;20.984;2022-11-15T14:59:51;42.40;;;16.60;;
54923;SDS011;40825;52.270;20.984;2022-11-15T15:02:18;45.30;;;18.00;;
54923;SDS011;40825;52.270;20.984;2022-11-15T15:07:12;38.20;;;15.90;;
54923;SDS011;40825;52.270;20.984;2022-11-15T15:09:37;41.70;;;16.30;;
54923;SDS011;40825;52.270;20.984;2022-11-15T15:12:03;41.80;;;17.40;;
54923;SDS011;40825;52.270;20.984;2022-11-15T15:14:32;36.90;;;15.60;;
54923;SDS011;40825;52.270;20.984;2022-11-15T15:16:57;36.30;;;15.40;;
54923;SDS011;40825;52.270;20.984;2022-11-15T15:19:23;35.00;;;15.10;;
54923;SDS011;40825;52.270;20.984;2022-11-15T15:21:49;39.70;;;16.10;;
54923;SDS011;40825;52.270;20.984;2022-11-15T15:24:14;39.40;;;16.80;;
54923;SDS011;40825;52.270;20.984;2022-11-15T15:26:40;40.50;;;16.20;;
54923;SDS011;40825;52.270;20.984;2022-11-15T15:29:05;37.60;;;15.90;;
54923;SDS011;40825;52.270;20.984;2022-11-15T15:31:31;40.50;;;14.70;;
54923;SDS011;40825;52.270;20.984;2022-11-15T15:33:58;40.00;;;16.70;;
54923;SDS011;40825;52.270;20.984;2022-11-15T15:36:23;42.10;;;16.40;;
54923;SDS011;40825;52.270;20.984;2022-11-15T15:38:50;37.20;;;16.20;;
54923;SDS011;40825;52.270;20.984;2022-11-15T15:41:16;40.70;;;17.40;;
54923;SDS011;40825;52.270;20.984;2022-11-15T15:43:42;40.10;;;16.90;;
54923;SDS011;40825;52.270;20.984;2022-11-15T15:46:17;41.10;;;17.40;;
54923;SDS011;40825;52.270;20.984;2022-11-15T15:48:44;45.50;;;17.50;;
54923;SDS011;40825;52.270;20.984;2022-11-15T15:51:10;42.00;;;17.10;;
54923;SDS011;40825;52.270;20.984;2022-11-15T15:53:36;46.40;;;18.10;;
54923;SDS011;40825;52.270;20.984;2022-11-15T15:56:02;47.30;;;18.40;;
54923;SDS011;40825;52.270;20.984;2022-11-15T15:58:29;38.10;;;16.90;;
54923;SDS011;40825;52.270;20.984;2022-11-15T16:00:54;47.20;;;19.40;;
54923;SDS011;40825;52.270;20.984;2022-11-15T16:03:20;45.10;;;17.20;;
54923;SDS011;40825;52.270;20.984;2022-11-15T16:05:45;41.80;;;16.20;;
54923;SDS011;40825;52.270;20.984;2022-11-15T16:08:21;37.50;;;15.10;;
54923;SDS011;40825;52.270;20.984;2022-11-15T16:10:48;45.20;;;17.60;;
54923;SDS011;40825;52.270;20.984;2022-11-15T16:13:14;44.40;;;18.30;;
54923;SDS011;40825;52.270;20.984;2022-11-15T16:15:40;44.90;;;17.00;;
54923;SDS011;40825;52.270;20.984;2022-11-15T16:18:09;32.70;;;12.80;;
54923;SDS011;40825;52.270;20.984;2022-11-15T16:20:41;47.70;;;17.00;;
54923;SDS011;40825;52.270;20.984;2022-11-15T16:23:14;43.70;;;18.00;;
54923;SDS011;40825;52.270;20.984;2022-11-15T16:25:48;45.80;;;16.00;;
54923;SDS011;40825;52.270;20.984;2022-11-15T16:28:23;41.70;;;16.40;;
54923;SDS011;40825;52.270;20.984;2022-11-15T16:30:59;45.50;;;17.50;;
54923;SDS011;40825;52.270;20.984;2022-11-15T16:33:33;43.50;;;16.70;;